Time;durP1;ratioP1;P1;durP2;ratioP2;P2;SDS_P1;SDS_P2;PMS_P1;PMS_P2;Temp;Humidity;BMP_temperature;BMP_pressure;BME280_temperature;BME280_humidity;BME280_pressure;Samples;Min_cycle;Max_cycle;Signal;HPM_P1;HPM_P2
2023/10/01 00:00:26;;;;;;;22.27;10.50;;;;;;;18.85;75.43;101885.88;5058202;28;20531;-65
2023/10/01 00:02:55;;;;;;;23.10;11.32;;;;;;;18.78;76.05;101885.59;5056570;28;20056;-64
2023/10/01 00:05:24;;;;;;;22.40;11.45;;;;;;;18.77;76.14;101884.81;5084977;28;20067;-65
2023/10/01 00:07:52;;;;;;;20.40;10.77;;;;;;;18.76;76.34;101891.53;5064489;28;20507;-65
2023/10/01 00:10:20;;;;;;;18.35;9.93;;;;;;;18.74;76.22;101885.47;5054535;28;20052;-63
2023/10/01 00:12:50;;;;;;;22.02;11.38;;;;;;;18.74;76.24;101881.88;5095903;28;20612;-64
2023/10/01 00:15:21;;;;;;;23.20;11.00;;;;;;;18.69;76.15;101879.31;5094455;28;20051;-64
2023/10/01 00:17:48;;;;;;;21.35;10.57;;;;;;;18.67;76.91;101884.41;5076702;28;20063;-64
2023/10/01 00:20:20;;;;;;;22.45;11.25;;;;;;;18.59;77.45;101879.69;5096048;28;20052;-64
2023/10/01 00:23:00;;;;;;;19.80;10.27;;;;;;;18.49;77.73;101877.28;5085346;28;20055;-64
2023/10/01 00:25:29;;;;;;;25.58;11.23;;;;;;;18.58;77.75;101884.47;5095733;28;20059;-61
2023/10/01 00:28:00;;;;;;;19.80;10.77;;;;;;;18.54;77.71;101891.88;5094566;28;20055;-64
2023/10/01 00:30:31;;;;;;;22.10;11.27;;;;;;;18.55;77.94;101881.53;5095942;28;20056;-65
2023/10/01 00:33:15;;;;;;;20.60;10.35;;;;;;;18.61;77.69;101871.78;5072381;28;20032;-65
2023/10/01 00:35:42;;;;;;;23.05;11.75;;;;;;;18.59;78.10;101876.88;5059143;28;20062;-64
2023/10/01 00:38:10;;;;;;;25.80;11.43;;;;;;;18.64;77.91;101877.50;5095066;28;20048;-64
2023/10/01 00:40:38;;;;;;;21.55;11.38;;;;;;;18.58;78.14;101878.06;5077149;28;20451;-64
2023/10/01 00:43:05;;;;;;;21.80;11.30;;;;;;;18.63;78.08;101877.84;5059084;28;20051;-66
2023/10/01 00:45:33;;;;;;;22.42;11.57;;;;;;;18.61;78.13;101875.41;5077360;28;20044;-65
2023/10/01 00:48:05;;;;;;;21.80;11.23;;;;;;;18.72;77.87;101873.84;5085484;28;20076;-65
2023/10/01 00:50:34;;;;;;;23.52;12.07;;;;;;;18.63;77.59;101877.84;5088803;28;20052;-64
2023/10/01 00:53:03;;;;;;;25.10;12.80;;;;;;;18.49;78.57;101866.97;5069893;28;20049;-62
2023/10/01 00:55:30;;;;;;;26.33;12.98;;;;;;;18.46;78.71;101866.81;5040317;28;20064;-62
2023/10/01 00:57:58;;;;;;;23.48;12.25;;;;;;;18.25;80.03;101871.50;5074322;28;20056;-62
2023/10/01 01:00:26;;;;;;;22.85;12.70;;;;;;;18.10;81.00;101860.94;5056769;28;20063;-62
2023/10/01 01:03:05;;;;;;;22.92;12.82;;;;;;;18.11;80.97;101865.34;5057068;28;20055;-63
2023/10/01 01:05:35;;;;;;;27.02;13.93;;;;;;;17.98;82.27;101862.47;5078497;28;20490;-63
2023/10/01 01:08:07;;;;;;;24.30;13.45;;;;;;;18.07;81.85;101862.41;5075047;28;20059;-62
2023/10/01 01:10:39;;;;;;;28.55;13.20;;;;;;;18.11;81.54;101862.56;5092773;28;20055;-62
2023/10/01 01:13:08;;;;;;;24.65;14.10;;;;;;;18.04;82.04;101857.53;5074626;28;20507;-62
2023/10/01 01:15:35;;;;;;;25.67;13.30;;;;;;;17.94;82.68;101861.50;5079587;28;20059;-62
2023/10/01 01:18:07;;;;;;;26.20;14.10;;;;;;;18.14;82.50;101856.31;5084080;28;20055;-61
2023/10/01 01:20:43;;;;;;;26.10;13.85;;;;;;;18.06;82.61;101859.97;5076065;28;20060;-62
2023/10/01 01:23:18;;;;;;;25.67;13.10;;;;;;;17.95;83.16;101860.34;5093102;28;20051;-63
2023/10/01 01:25:46;;;;;;;26.60;13.98;;;;;;;17.91;83.03;101856.59;5076251;28;20058;-62
2023/10/01 01:28:15;;;;;;;26.67;14.38;;;;;;;17.86;83.74;101853.19;5076000;28;20048;-63
2023/10/01 01:30:43;;;;;;;27.88;14.85;;;;;;;17.80;84.17;101844.19;5075905;28;20071;-62
2023/10/01 01:33:13;;;;;;;22.65;13.57;;;;;;;17.85;83.87;101838.41;5093688;28;20059;-62
2023/10/01 01:35:43;;;;;;;29.05;14.32;;;;;;;17.84;83.58;101830.38;5076350;28;20048;-64
2023/10/01 01:38:10;;;;;;;24.70;13.85;;;;;;;17.82;83.99;101830.72;5093799;28;20062;-65
2023/10/01 01:40:40;;;;;;;27.88;13.80;;;;;;;17.84;84.03;101830.38;5059600;28;20044;-62
2023/10/01 01:43:23;;;;;;;24.55;14.32;;;;;;;17.72;84.54;101828.31;5075794;28;20514;-62
2023/10/01 01:45:55;;;;;;;26.52;14.07;;;;;;;17.62;85.28;101827.88;5094017;28;20048;-61
2023/10/01 01:51:02;;;;;;;27.08;14.45;;;;;;;17.67;85.51;101822.94;5094061;28;20056;-64
2023/10/01 01:53:34;;;;;;;25.38;13.77;;;;;;;17.55;85.53;101825.59;5075618;28;20067;-64
2023/10/01 01:56:10;;;;;;;27.67;14.73;;;;;;;17.61;85.88;101829.84;5094283;28;20158;-65
2023/10/01 01:58:39;;;;;;;24.73;14.75;;;;;;;17.59;86.41;101832.13;5060328;28;20052;-62
2023/10/01 02:03:46;;;;;;;24.70;14.55;;;;;;;17.47;87.17;101839.56;5093564;28;20052;-62
2023/10/01 02:06:15;;;;;;;29.85;15.73;;;;;;;17.52;87.22;101831.81;5094121;28;20466;-61
2023/10/01 02:08:58;;;;;;;26.05;14.55;;;;;;;17.52;86.89;101828.25;5073559;28;20052;-62
2023/10/01 02:11:32;;;;;;;27.75;14.82;;;;;;;17.43;87.40;101825.47;5057933;28;20048;-62
2023/10/01 02:14:03;;;;;;;30.55;16.45;;;;;;;17.61;86.94;101829.00;5075237;28;20498;-62
2023/10/01 02:16:38;;;;;;;30.13;15.23;;;;;;;17.56;86.73;101827.22;5074782;28;20044;-61
2023/10/01 02:19:21;;;;;;;26.08;14.63;;;;;;;17.46;86.91;101832.31;5093417;28;20063;-61
2023/10/01 02:21:52;;;;;;;26.52;14.77;;;;;;;17.46;87.81;101822.03;5077364;28;20063;-61
2023/10/01 02:24:23;;;;;;;26.02;14.60;;;;;;;17.35;88.26;101826.28;5093156;28;20589;-61
2023/10/01 02:26:59;;;;;;;28.83;13.95;;;;;;;17.49;87.62;101832.50;5093448;28;20048;-62
2023/10/01 02:29:31;;;;;;;28.38;13.90;;;;;;;17.43;87.94;101839.38;5092998;28;20060;-63
2023/10/01 02:32:04;;;;;;;28.45;14.73;;;;;;;17.27;88.83;101835.50;5074833;28;20059;-65
2023/10/01 02:34:32;;;;;;;26.35;14.98;;;;;;;17.26;89.45;101833.03;5093329;28;20044;-64
2023/10/01 02:37:05;;;;;;;25.95;14.10;;;;;;;17.32;89.15;101837.25;5091341;28;20075;-63
2023/10/01 02:39:33;;;;;;;27.02;14.57;;;;;;;17.20;89.35;101835.19;5074740;28;20054;-64
2023/10/01 02:44:34;;;;;;;24.75;13.77;;;;;;;17.29;89.34;101835.97;5092705;28;20044;-61
2023/10/01 02:47:16;;;;;;;30.67;15.40;;;;;;;17.35;88.98;101833.81;5092664;28;20047;-62
2023/10/01 02:49:50;;;;;;;31.55;13.88;;;;;;;17.25;89.13;101826.66;5074523;28;20058;-62
2023/10/01 02:52:36;;;;;;;25.42;14.43;;;;;;;17.11;89.72;101827.97;5075837;28;20463;-64
2023/10/01 02:55:18;;;;;;;29.08;14.90;;;;;;;17.00;91.36;101829.47;5074172;28;20036;-64
2023/10/01 02:57:50;;;;;;;27.23;15.00;;;;;;;17.05;91.18;101830.09;5042841;28;20052;-64
2023/10/01 03:02:51;;;;;;;25.15;14.02;;;;;;;16.94;91.49;101820.47;5087795;28;20832;-64
2023/10/01 03:07:52;;;;;;;27.85;14.73;;;;;;;16.79;92.64;101823.75;5091950;28;20051;-61
2023/10/01 03:10:26;;;;;;;24.88;14.13;;;;;;;16.90;92.89;101822.28;5092615;28;20601;-62
2023/10/01 03:12:59;;;;;;;23.65;14.05;;;;;;;16.94;92.55;101826.06;5072174;28;20048;-61
2023/10/01 03:15:28;;;;;;;28.77;13.90;;;;;;;16.88;92.56;101817.03;5021103;28;20044;-62
2023/10/01 03:17:57;;;;;;;25.58;14.30;;;;;;;16.97;92.76;101825.38;5067203;28;20048;-61
2023/10/01 03:23:07;;;;;;;29.35;14.98;;;;;;;16.89;92.68;101817.88;5092354;28;20055;-62
2023/10/01 03:25:41;;;;;;;32.03;14.75;;;;;;;16.82;93.38;101815.56;5092401;28;20044;-62
2023/10/01 03:28:26;;;;;;;27.25;14.45;;;;;;;16.85;93.32;101814.94;5074397;28;20066;-62
2023/10/01 03:31:09;;;;;;;25.08;13.95;;;;;;;16.88;93.91;101822.59;5073671;28;20070;-62
2023/10/01 03:33:38;;;;;;;25.75;13.95;;;;;;;16.81;93.35;101822.28;5092146;28;20059;-61
2023/10/01 03:36:10;;;;;;;28.05;14.82;;;;;;;16.74;93.53;101823.91;5092270;28;20052;-61
2023/10/01 03:38:38;;;;;;;28.60;14.68;;;;;;;16.75;94.19;101825.56;5074195;28;20051;-61
2023/10/01 03:41:08;;;;;;;26.92;14.45;;;;;;;16.71;94.42;101819.03;5092010;28;20052;-62
2023/10/01 03:43:36;;;;;;;28.23;14.52;;;;;;;16.67;94.86;101815.25;5058032;28;20419;-64
2023/10/01 03:48:58;;;;;;;26.67;13.55;;;;;;;16.54;95.80;101816.25;5092133;28;20063;-64
2023/10/01 03:54:14;;;;;;;27.17;13.45;;;;;;;16.40;96.45;101813.59;5073805;28;20048;-61
2023/10/01 03:56:56;;;;;;;25.98;13.63;;;;;;;16.45;96.80;101812.59;5074010;28;20503;-61
2023/10/01 03:59:28;;;;;;;26.27;14.00;;;;;;;16.43;97.39;101812.94;5089376;28;20055;-61
2023/10/01 04:01:58;;;;;;;24.65;13.70;;;;;;;16.31;97.59;101809.97;5070751;28;20057;-64
2023/10/01 04:04:28;;;;;;;25.88;14.15;;;;;;;16.20;98.80;101805.03;5071263;28;20056;-64
2023/10/01 04:06:59;;;;;;;26.03;13.20;;;;;;;16.22;98.27;101803.56;5087985;28;20430;-64
2023/10/01 04:09:27;;;;;;;27.83;14.90;;;;;;;16.30;98.27;101804.75;5091603;28;20300;-64
2023/10/01 04:12:18;;;;;;;26.02;13.77;;;;;;;16.38;97.61;101801.97;5091854;28;20056;-64
2023/10/01 04:14:48;;;;;;;23.88;13.15;;;;;;;16.35;97.22;101805.38;5091400;28;20051;-65
2023/10/01 04:17:19;;;;;;;29.08;13.15;;;;;;;16.32;97.55;101802.47;5066753;28;20057;-62
2023/10/01 04:20:00;;;;;;;27.17;13.93;;;;;;;16.41;96.88;101806.03;5053388;28;20052;-64
2023/10/01 04:22:29;;;;;;;24.20;13.93;;;;;;;16.37;96.73;101811.44;5055523;28;20052;-64
2023/10/01 04:27:45;;;;;;;27.35;13.77;;;;;;;16.41;96.79;101806.03;5058523;28;20067;-62
2023/10/01 04:30:14;;;;;;;26.00;13.27;;;;;;;16.51;96.05;101816.91;5080987;28;20047;-62
2023/10/01 04:32:42;;;;;;;22.85;13.20;;;;;;;16.46;95.93;101803.97;5089297;28;20067;-63
2023/10/01 04:35:16;;;;;;;27.80;13.55;;;;;;;16.49;96.38;101805.28;5053412;28;20047;-65
2023/10/01 04:37:48;;;;;;;23.17;13.02;;;;;;;16.51;95.97;101809.34;5071459;28;20451;-65
2023/10/01 04:40:39;;;;;;;23.63;12.82;;;;;;;16.47;96.07;101808.38;5071546;28;20496;-65
2023/10/01 04:43:10;;;;;;;25.42;13.23;;;;;;;16.49;95.59;101813.63;5072512;28;20060;-65
2023/10/01 04:45:40;;;;;;;24.10;12.82;;;;;;;16.30;96.51;101813.88;5062606;28;20059;-65
2023/10/01 04:48:15;;;;;;;25.08;12.43;;;;;;;16.37;96.65;101813.41;5095222;28;20056;-65
2023/10/01 04:50:46;;;;;;;24.13;13.00;;;;;;;16.18;97.40;101810.13;5095344;28;20051;-64
2023/10/01 04:53:14;;;;;;;26.48;13.80;;;;;;;16.07;98.21;101812.38;5094658;28;20055;-65
2023/10/01 04:55:42;;;;;;;23.75;13.30;;;;;;;16.15;98.24;101805.19;5075880;28;20048;-65
2023/10/01 04:58:14;;;;;;;26.52;12.48;;;;;;;16.21;97.34;101813.06;5087971;28;20041;-66
2023/10/01 05:00:46;;;;;;;25.55;13.15;;;;;;;16.08;97.64;101815.97;5058188;28;20059;-64
2023/10/01 05:03:17;;;;;;;28.58;13.15;;;;;;;16.14;97.82;101809.13;5093823;28;20498;-65
2023/10/01 05:05:44;;;;;;;;;;;;;;;16.01;98.43;101815.63;5095578;28;20044;-66
2023/10/01 05:08:14;;;;;;;25.27;12.60;;;;;;;16.06;98.80;101810.75;5095070;28;19924;-65
2023/10/01 05:10:56;;;;;;;24.17;12.63;;;;;;;16.07;98.34;101815.16;5077361;28;20052;-65
2023/10/01 05:13:23;;;;;;;25.55;12.50;;;;;;;16.13;98.41;101815.81;5059119;28;20048;-65
2023/10/01 05:15:56;;;;;;;27.23;13.45;;;;;;;15.96;98.53;101816.59;5087510;28;20051;-65
2023/10/01 05:18:28;;;;;;;24.05;12.55;;;;;;;16.16;98.24;101817.97;5094441;28;20055;-66
2023/10/01 05:21:04;;;;;;;24.30;12.68;;;;;;;16.18;97.27;101816.47;5083046;28;20087;-66
2023/10/01 05:23:31;;;;;;;26.08;12.77;;;;;;;16.08;97.37;101814.00;5056576;28;20055;-66
2023/10/01 05:25:59;;;;;;;23.88;12.02;;;;;;;16.09;98.48;101815.63;5079588;28;20036;-65
2023/10/01 05:28:34;;;;;;;25.50;12.55;;;;;;;16.15;97.52;101810.75;5076759;28;20047;-65
2023/10/01 05:31:06;;;;;;;24.90;12.60;;;;;;;16.05;97.77;101825.78;5083084;28;20051;-64
2023/10/01 05:33:33;;;;;;;21.58;12.35;;;;;;;16.11;97.82;101820.91;5080067;28;20055;-65
2023/10/01 05:36:05;;;;;;;20.98;11.77;;;;;;;16.03;98.21;101828.06;5075732;28;20055;-64
2023/10/01 05:38:36;;;;;;;21.58;11.88;;;;;;;16.10;98.30;101822.84;5076152;28;20056;-65
2023/10/01 05:41:04;;;;;;;24.90;11.68;;;;;;;16.02;98.11;101826.44;5076246;28;20055;-65
2023/10/01 05:43:37;;;;;;;22.55;11.43;;;;;;;15.98;98.40;101833.78;5094447;28;20052;-65
2023/10/01 05:46:11;;;;;;;22.80;11.60;;;;;;;16.13;97.95;101830.53;5087664;28;20044;-66
2023/10/01 05:48:39;;;;;;;21.70;12.23;;;;;;;15.98;98.44;101833.78;5057012;28;20053;-64
2023/10/01 05:51:30;;;;;;;26.45;12.30;;;;;;;16.10;97.63;101830.38;5055883;28;20524;-65
2023/10/01 05:53:59;;;;;;;20.60;11.95;;;;;;;16.02;98.19;101833.97;5080710;28;20466;-65
2023/10/01 05:56:36;;;;;;;24.23;12.77;;;;;;;16.09;97.85;101834.31;5039809;28;20043;-65
2023/10/01 05:59:04;;;;;;;26.77;13.20;;;;;;;15.99;97.94;101827.06;5056320;28;20044;-63
2023/10/01 06:01:34;;;;;;;23.08;11.85;;;;;;;16.14;97.96;101826.63;5051584;28;20049;-65
2023/10/01 06:04:01;;;;;;;25.50;12.25;;;;;;;15.98;98.39;101832.94;5083490;28;20571;-67
2023/10/01 06:06:36;;;;;;;24.70;12.60;;;;;;;15.84;98.90;101841.41;5086616;28;20048;-65
2023/10/01 06:09:09;;;;;;;26.48;12.48;;;;;;;15.93;99.33;101844.22;5059622;28;20055;-64
2023/10/01 06:11:41;;;;;;;23.73;12.50;;;;;;;15.95;99.02;101847.50;5091625;28;20048;-61
2023/10/01 06:14:29;;;;;;;23.40;11.88;;;;;;;16.00;98.50;101844.56;5042356;28;20056;-62
2023/10/01 06:17:05;;;;;;;25.42;12.27;;;;;;;15.85;98.32;101848.59;5089272;28;20043;-62
2023/10/01 06:19:33;;;;;;;24.63;12.02;;;;;;;15.91;99.12;101840.94;5073401;28;20506;-63
2023/10/01 06:22:13;;;;;;;25.67;13.07;;;;;;;15.87;98.90;101835.22;5075798;28;20446;-62
2023/10/01 06:24:46;;;;;;;22.30;12.07;;;;;;;15.84;99.20;101840.59;5060631;28;20059;-61
2023/10/01 06:27:17;;;;;;;23.63;12.52;;;;;;;16.00;99.15;101850.13;5075699;28;20074;-63
2023/10/01 06:29:52;;;;;;;24.75;12.80;;;;;;;16.00;98.28;101852.91;5073642;28;20063;-63
2023/10/01 06:32:20;;;;;;;21.48;12.13;;;;;;;16.10;98.02;101838.69;5076573;28;20052;-62
2023/10/01 06:34:49;;;;;;;23.08;12.25;;;;;;;16.10;97.66;101847.88;5092869;28;20059;-62
2023/10/01 06:37:19;;;;;;;22.90;12.20;;;;;;;16.29;97.36;101840.06;5093202;28;20052;-63
2023/10/01 06:39:46;;;;;;;27.52;13.27;;;;;;;16.25;96.29;101846.59;5073949;28;20049;-65
2023/10/01 06:42:20;;;;;;;28.73;17.20;;;;;;;16.23;96.73;101846.09;5076279;28;20059;-64
2023/10/01 06:44:55;;;;;;;23.20;12.27;;;;;;;16.26;96.63;101835.16;5073895;28;20051;-65
2023/10/01 06:47:25;;;;;;;23.42;13.63;;;;;;;16.12;97.15;101836.44;5071828;28;20403;-65
2023/10/01 06:49:57;;;;;;;24.42;12.90;;;;;;;15.90;98.56;101837.34;5106515;28;20063;-65
2023/10/01 06:52:26;;;;;;;24.25;12.65;;;;;;;16.00;98.42;101839.84;5094006;28;20055;-66
2023/10/01 06:54:59;;;;;;;26.93;12.80;;;;;;;15.99;98.64;101837.38;5095137;28;20051;-66
2023/10/01 06:57:33;;;;;;;24.60;13.07;;;;;;;16.07;98.18;101831.03;5078401;28;20063;-63
2023/10/01 07:00:03;;;;;;;27.48;14.32;;;;;;;16.14;97.64;101834.16;5093303;28;20044;-62
2023/10/01 07:02:34;;;;;;;23.92;12.68;;;;;;;16.32;97.42;101831.06;5092924;28;20052;-63
2023/10/01 07:05:02;;;;;;;22.48;12.82;;;;;;;16.13;96.83;101824.16;5091206;28;20056;-63
2023/10/01 07:07:42;;;;;;;22.25;12.50;;;;;;;16.25;97.56;101829.94;5092887;28;20407;-63
2023/10/01 07:10:10;;;;;;;25.27;13.52;;;;;;;16.19;96.81;101834.81;5093052;28;20058;-63
2023/10/01 07:12:38;;;;;;;21.77;12.60;;;;;;;16.26;97.44;101828.78;5092416;28;20056;-63
2023/10/01 07:15:06;;;;;;;24.05;13.13;;;;;;;16.41;96.55;101829.13;5092767;28;20047;-62
2023/10/01 07:17:35;;;;;;;26.17;13.45;;;;;;;16.61;95.89;101831.31;5092499;28;20059;-63
2023/10/01 07:20:18;;;;;;;23.95;12.55;;;;;;;16.67;95.24;101834.72;5092787;28;20040;-63
2023/10/01 07:22:47;;;;;;;25.33;13.02;;;;;;;16.71;94.83;101835.72;5092101;28;20052;-61
2023/10/01 07:25:37;;;;;;;30.75;14.38;;;;;;;16.81;93.51;101835.38;5092511;28;20064;-61
2023/10/01 07:28:12;;;;;;;22.92;12.15;;;;;;;16.81;93.69;101835.38;5073585;28;20178;-62
2023/10/01 07:30:51;;;;;;;26.33;14.10;;;;;;;16.93;93.26;101840.28;5092317;28;20056;-62
2023/10/01 07:33:22;;;;;;;23.05;13.70;;;;;;;16.88;93.57;101838.47;5091824;28;20056;-62
2023/10/01 07:36:01;;;;;;;27.60;14.52;;;;;;;16.95;93.26;101837.97;5074130;28;20060;-63
2023/10/01 07:38:32;;;;;;;23.67;13.95;;;;;;;17.11;92.49;101837.16;5092748;28;20502;-63
2023/10/01 07:41:07;;;;;;;20.65;11.48;;;;;;;17.06;92.48;101834.53;5092564;28;20056;-62
2023/10/01 07:43:35;;;;;;;21.08;11.98;;;;;;;17.14;92.49;101833.69;5074669;28;20600;-63
2023/10/01 07:46:07;;;;;;;21.70;12.05;;;;;;;17.00;92.92;101840.63;5091339;28;20388;-62
2023/10/01 07:48:38;;;;;;;23.25;12.60;;;;;;;17.18;92.75;101842.22;5090737;28;20067;-62
2023/10/01 07:51:22;;;;;;;22.67;11.48;;;;;;;17.22;92.22;101844.03;5092231;28;20426;-63
2023/10/01 07:53:52;;;;;;;23.55;12.25;;;;;;;17.45;91.57;101845.41;5092296;28;20052;-64
2023/10/01 07:56:23;;;;;;;30.25;14.00;;;;;;;17.48;90.71;101850.38;5091131;28;20063;-64
2023/10/01 07:58:57;;;;;;;37.38;25.67;;;;;;;17.92;89.70;101844.28;5091951;28;20697;-62
2023/10/01 08:01:37;;;;;;;23.95;12.52;;;;;;;17.86;88.28;101848.44;5078167;28;20051;-62
2023/10/01 08:04:08;;;;;;;21.90;11.48;;;;;;;17.71;88.88;101854.53;5073076;28;20059;-62
2023/10/01 08:06:42;;;;;;;23.15;11.30;;;;;;;17.75;89.08;101858.28;5091219;28;20044;-63
2023/10/01 08:09:13;;;;;;;19.75;10.82;;;;;;;17.83;89.10;101853.84;5091848;28;20052;-63
2023/10/01 08:12:05;;;;;;;18.70;10.30;;;;;;;17.78;88.72;101856.81;5092850;28;20048;-62
2023/10/01 08:14:33;;;;;;;17.58;9.88;;;;;;;17.98;88.70;101856.88;5077727;28;20036;-63
2023/10/01 08:17:03;;;;;;;20.40;10.30;;;;;;;17.99;88.52;101869.66;5075086;28;20047;-62
2023/10/01 08:19:49;;;;;;;22.63;10.80;;;;;;;18.11;88.11;101860.59;5096180;28;20139;-62
2023/10/01 08:22:23;;;;;;;20.77;10.50;;;;;;;17.94;87.93;101861.50;5095037;28;20162;-62
2023/10/01 08:24:51;;;;;;;21.05;10.75;;;;;;;18.26;86.99;101861.97;5096067;28;20048;-61
2023/10/01 08:27:31;;;;;;;18.85;9.90;;;;;;;18.39;85.87;101855.34;5095847;28;20713;-61
2023/10/01 08:30:17;;;;;;;20.48;10.32;;;;;;;18.43;85.43;101865.50;5095604;28;20055;-61
2023/10/01 08:32:49;;;;;;;20.58;10.23;;;;;;;18.64;84.70;101857.16;5095395;28;20070;-62
2023/10/01 08:35:23;;;;;;;18.70;10.30;;;;;;;18.69;83.73;101862.56;5090654;28;20052;-61
2023/10/01 08:37:59;;;;;;;21.48;10.75;;;;;;;18.80;83.93;101860.97;5094947;28;20048;-63
2023/10/01 08:40:28;;;;;;;18.40;10.05;;;;;;;18.64;83.29;101862.72;5075112;28;20055;-65
2023/10/01 08:42:58;;;;;;;25.58;10.65;;;;;;;18.63;83.40;101861.09;5075463;28;20060;-64
2023/10/01 08:45:37;;;;;;;20.40;10.23;;;;;;;18.56;83.42;101864.44;5079336;28;20044;-63
2023/10/01 08:48:17;;;;;;;20.25;10.43;;;;;;;18.59;84.26;101860.16;5095254;28;20431;-63
2023/10/01 08:50:45;;;;;;;18.80;10.20;;;;;;;18.82;82.86;101859.47;5078091;28;20047;-64
2023/10/01 08:53:13;;;;;;;22.05;10.85;;;;;;;18.80;82.42;101867.38;5095460;28;20515;-62
2023/10/01 09:00:48;;;;;;;18.13;9.82;;;;;;;19.26;80.58;101848.72;5072031;28;20056;-62
2023/10/01 09:03:28;;;;;;;20.60;10.13;;;;;;;19.31;80.03;101848.53;5095270;28;20446;-63
2023/10/01 09:06:06;;;;;;;18.27;9.82;;;;;;;19.17;80.53;101845.19;5093236;28;20055;-63
2023/10/01 09:08:45;;;;;;;19.08;9.45;;;;;;;19.22;80.95;101840.22;5093875;28;20078;-61
2023/10/01 09:11:14;;;;;;;17.60;9.07;;;;;;;19.25;80.95;101839.50;5091466;28;20052;-63
2023/10/01 09:13:58;;;;;;;18.95;8.93;;;;;;;19.37;81.17;101844.38;5066717;28;20051;-62
2023/10/01 09:16:31;;;;;;;22.98;10.80;;;;;;;19.23;81.67;101847.41;5060117;28;20048;-63
2023/10/01 09:21:47;;;;;;;17.02;9.27;;;;;;;19.44;81.20;101853.78;5074672;28;20063;-64
2023/10/01 09:24:55;;;;;;;19.80;9.20;;;;;;;19.72;80.88;101846.41;5074853;28;20048;-65
2023/10/01 09:27:18;;;;;;;17.33;8.80;;;;;;;20.13;80.32;101840.59;5081750;28;20043;-63
2023/10/01 09:29:56;;;;;;;16.30;8.48;;;;;;;20.35;79.64;101844.09;5093247;28;20044;-64
2023/10/01 09:32:53;;;;;;;16.23;8.15;;;;;;;20.52;78.23;101838.25;5073539;28;20067;-62
2023/10/01 09:35:30;;;;;;;14.20;7.80;;;;;;;20.52;78.08;101832.66;5056542;28;20047;-68
2023/10/01 09:38:11;;;;;;;19.85;8.52;;;;;;;20.72;77.54;101832.47;5085426;28;20044;-67
2023/10/01 09:40:47;;;;;;;14.95;7.65;;;;;;;20.80;77.77;101831.50;5075916;28;20044;-67
2023/10/01 09:43:48;;;;;;;14.35;7.68;;;;;;;20.72;77.09;101837.25;5064702;28;20249;-67
2023/10/01 09:46:16;;;;;;;16.83;8.50;;;;;;;21.01;76.21;101832.16;5074613;28;20053;-68
2023/10/01 09:48:48;;;;;;;20.20;7.68;;;;;;;21.05;75.62;101837.84;5048159;28;20060;-66
2023/10/01 09:51:19;;;;;;;16.27;8.07;;;;;;;21.24;74.57;101836.00;5038624;28;20051;-66
2023/10/01 09:53:54;;;;;;;14.23;7.18;;;;;;;21.14;74.06;101830.13;5056447;28;20059;-67
2023/10/01 09:56:57;;;;;;;18.88;8.35;;;;;;;21.24;74.38;101824.81;5056157;28;20049;-67
2023/10/01 09:59:19;;;;;;;15.60;7.95;;;;;;;21.55;74.16;101832.44;5072262;28;20048;-68
2023/10/01 10:02:02;;;;;;;15.13;7.28;;;;;;;21.60;73.08;101826.56;5057559;28;20075;-64
2023/10/01 10:04:34;;;;;;;15.88;8.18;;;;;;;21.58;72.88;101825.31;5055267;28;20049;-65
2023/10/01 10:07:01;;;;;;;17.50;8.35;;;;;;;21.74;72.52;101818.50;5038132;28;20041;-65
2023/10/01 10:09:37;;;;;;;20.23;8.35;;;;;;;21.85;72.02;101819.63;5072592;28;20479;-64
2023/10/01 10:12:10;;;;;;;15.82;7.65;;;;;;;21.86;71.92;101818.44;5072600;28;20041;-64
2023/10/01 10:14:39;;;;;;;18.35;8.02;;;;;;;21.99;71.20;101819.16;5066108;28;20051;-66
2023/10/01 10:20:15;;;;;;;15.80;7.70;;;;;;;21.85;70.15;101819.63;5063858;28;20056;-63
2023/10/01 10:23:29;;;;;;;13.38;7.53;;;;;;;21.71;70.74;101807.19;5051653;28;20051;-67
2023/10/01 10:27:00;;;;;;;14.98;7.45;;;;;;;22.03;70.50;101812.47;5033471;28;20053;-66
2023/10/01 10:29:46;;;;;;;16.20;7.90;;;;;;;22.05;69.98;101812.09;5072632;28;20083;-65
2023/10/01 10:32:14;;;;;;;14.52;7.50;;;;;;;22.02;70.34;101812.84;5071204;28;20047;-64
2023/10/01 10:35:03;;;;;;;15.40;7.75;;;;;;;21.99;69.44;101805.13;5053865;28;20130;-65
2023/10/01 10:37:37;;;;;;;17.70;8.85;;;;;;;22.02;70.00;101799.59;5054121;28;20050;-65
2023/10/01 10:40:29;;;;;;;18.20;10.63;;;;;;;22.16;69.85;101799.94;5053416;28;20048;-65
2023/10/01 10:43:02;;;;;;;15.00;7.87;;;;;;;22.18;68.97;101793.97;5065117;28;20055;-64
2023/10/01 10:45:47;;;;;;;16.10;7.43;;;;;;;22.35;68.21;101788.75;5071876;28;20059;-64
2023/10/01 10:48:21;;;;;;;18.23;10.10;;;;;;;22.60;68.07;101780.06;5067863;28;20052;-68
2023/10/01 10:50:53;;;;;;;18.65;10.82;;;;;;;22.30;68.51;101777.81;5065758;28;20047;-65
2023/10/01 10:53:39;;;;;;;16.58;7.15;;;;;;;22.26;68.32;101784.53;5070370;28;20052;-64
2023/10/01 10:56:08;;;;;;;17.88;8.30;;;;;;;22.54;67.96;101782.38;5066024;28;20032;-65
2023/10/01 10:58:39;;;;;;;12.60;7.15;;;;;;;22.75;67.02;101776.41;5069344;28;20044;-65
2023/10/01 11:01:23;;;;;;;16.77;8.40;;;;;;;22.99;66.16;101771.28;5065423;28;20510;-65
2023/10/01 11:03:58;;;;;;;14.82;8.18;;;;;;;22.91;66.19;101777.13;5050652;28;20045;-65
2023/10/01 11:06:39;;;;;;;16.17;7.68;;;;;;;23.02;65.34;101775.31;5065712;28;20052;-65
2023/10/01 11:12:23;;;;;;;18.48;10.13;;;;;;;23.06;65.29;101764.97;5077111;28;20076;-66
2023/10/01 11:17:47;;;;;;;19.95;10.80;;;;;;;23.13;65.01;101765.13;5071766;28;20045;-65
2023/10/01 11:20:22;;;;;;;16.70;8.57;;;;;;;23.06;64.98;101765.81;5069400;28;20051;-66
2023/10/01 11:22:54;;;;;;;17.10;8.15;;;;;;;23.20;64.58;101768.06;5069687;28;20048;-64
2023/10/01 11:25:23;;;;;;;14.95;8.35;;;;;;;23.22;64.84;101766.47;5070556;28;20048;-66
2023/10/01 11:28:06;;;;;;;15.65;8.38;;;;;;;23.09;65.53;101767.03;5070540;28;20044;-65
2023/10/01 11:30:42;;;;;;;18.27;8.95;;;;;;;23.22;64.66;101762.88;5071022;28;20045;-65
2023/10/01 11:35:59;;;;;;;16.23;9.80;;;;;;;23.28;63.61;101750.97;5071124;28;20609;-65
2023/10/01 11:38:28;;;;;;;18.80;10.77;;;;;;;23.51;63.22;101764.22;5070757;28;20045;-66
2023/10/01 11:41:06;;;;;;;17.60;9.25;;;;;;;23.48;62.98;101757.34;5068783;28;20071;-65
2023/10/01 11:43:38;;;;;;;20.77;9.95;;;;;;;23.45;62.91;101746.84;5091447;28;20517;-66
2023/10/01 11:46:20;;;;;;;17.60;9.20;;;;;;;23.75;61.64;101744.09;5091135;28;20051;-67
2023/10/01 11:49:16;;;;;;;;;;;;;;;23.63;61.97;101745.13;5079305;28;20383;-61
2023/10/01 11:51:54;;;;;;;21.40;13.75;;;;;;;23.84;60.99;101747.47;5090623;28;19920;-62
2023/10/01 11:54:43;;;;;;;30.92;18.42;;;;;;;23.83;60.18;101741.06;5067255;28;20053;-63
2023/10/01 11:57:23;;;;;;;17.42;9.80;;;;;;;23.84;59.40;101742.66;5072376;28;20052;-61
2023/10/01 11:59:55;;;;;;;17.77;9.13;;;;;;;24.00;59.30;101736.91;5090003;28;20072;-62
2023/10/01 12:02:32;;;;;;;21.95;9.65;;;;;;;24.13;57.55;101743.94;5080310;28;20050;-62
2023/10/01 12:05:03;;;;;;;23.80;9.68;;;;;;;24.36;56.92;101739.03;5083754;28;20383;-61
2023/10/01 12:07:42;;;;;;;19.27;9.48;;;;;;;24.31;56.22;101728.91;5094040;28;20048;-62
2023/10/01 12:12:59;;;;;;;16.98;9.50;;;;;;;24.17;57.13;101728.72;5068796;28;20059;-61
2023/10/01 12:15:34;;;;;;;15.60;8.97;;;;;;;24.18;57.53;101727.50;5081529;28;20048;-61
2023/10/01 12:18:14;;;;;;;16.35;9.60;;;;;;;24.28;57.13;101724.06;5067326;28;20040;-64
2023/10/01 12:20:50;;;;;;;20.75;9.18;;;;;;;24.40;56.99;101717.34;5085052;28;20036;-62
2023/10/01 12:23:22;;;;;;;19.33;9.82;;;;;;;24.42;56.21;101704.53;5083660;28;20606;-62
2023/10/01 12:25:53;;;;;;;17.77;9.82;;;;;;;24.45;56.39;101706.56;5084675;28;20047;-62
2023/10/01 12:28:31;;;;;;;19.67;10.25;;;;;;;24.51;56.00;101710.66;5102406;28;20050;-63